sensor_id;sensor_type;location;lat;lon;timestamp;temperature;humidity
59857;DHT22;45733;52.668;6.860;2023-07-13T00:01:47;15.60;99.90
59857;DHT22;45733;52.668;6.860;2023-07-13T00:04:19;15.60;99.90
59857;DHT22;45733;52.668;6.860;2023-07-13T00:06:46;15.50;99.90
59857;DHT22;45733;52.668;6.860;2023-07-13T00:09:16;15.60;99.90
59857;DHT22;45733;52.668;6.860;2023-07-13T00:11:43;15.60;99.90
59857;DHT22;45733;52.668;6.860;2023-07-13T00:14:10;15.60;99.90
59857;DHT22;45733;52.668;6.860;2023-07-13T00:16:39;15.70;99.90
59857;DHT22;45733;52.668;6.860;2023-07-13T00:19:08;15.60;99.90
59857;DHT22;45733;52.668;6.860;2023-07-13T00:21:37;15.60;99.90
59857;DHT22;45733;52.668;6.860;2023-07-13T00:24:11;15.60;99.90
59857;DHT22;45733;52.668;6.860;2023-07-13T00:26:47;15.60;99.90
59857;DHT22;45733;52.668;6.860;2023-07-13T00:29:20;15.70;99.90
59857;DHT22;45733;52.668;6.860;2023-07-13T00:31:49;15.60;99.90
59857;DHT22;45733;52.668;6.860;2023-07-13T00:34:19;15.60;99.90
59857;DHT22;45733;52.668;6.860;2023-07-13T00:36:45;15.60;99.90
59857;DHT22;45733;52.668;6.860;2023-07-13T00:39:10;15.70;99.90
59857;DHT22;45733;52.668;6.860;2023-07-13T00:41:36;15.60;99.90
59857;DHT22;45733;52.668;6.860;2023-07-13T00:44:08;15.50;99.90
59857;DHT22;45733;52.668;6.860;2023-07-13T00:46:34;15.60;99.90
59857;DHT22;45733;52.668;6.860;2023-07-13T00:49:16;15.50;99.90
59857;DHT22;45733;52.668;6.860;2023-07-13T00:51:50;15.50;99.90
59857;DHT22;45733;52.668;6.860;2023-07-13T00:54:40;15.50;99.90
59857;DHT22;45733;52.668;6.860;2023-07-13T00:57:14;15.40;99.90
59857;DHT22;45733;52.668;6.860;2023-07-13T00:59:54;15.50;99.90
59857;DHT22;45733;52.668;6.860;2023-07-13T01:02:28;15.50;99.90
59857;DHT22;45733;52.668;6.860;2023-07-13T01:04:55;15.60;99.90
59857;DHT22;45733;52.668;6.860;2023-07-13T01:07:27;15.50;99.90
59857;DHT22;45733;52.668;6.860;2023-07-13T01:09:53;15.60;99.90
59857;DHT22;45733;52.668;6.860;2023-07-13T01:12:19;15.70;99.90
59857;DHT22;45733;52.668;6.860;2023-07-13T01:14:44;15.70;99.90
59857;DHT22;45733;52.668;6.860;2023-07-13T01:17:13;15.70;99.90
59857;DHT22;45733;52.668;6.860;2023-07-13T01:19:51;15.80;99.90
59857;DHT22;45733;52.668;6.860;2023-07-13T01:22:23;15.90;99.90
59857;DHT22;45733;52.668;6.860;2023-07-13T01:24:52;15.80;99.90
59857;DHT22;45733;52.668;6.860;2023-07-13T01:27:22;15.90;99.90
59857;DHT22;45733;52.668;6.860;2023-07-13T01:29:56;15.90;99.90
59857;DHT22;45733;52.668;6.860;2023-07-13T01:32:42;16.00;99.90
59857;DHT22;45733;52.668;6.860;2023-07-13T01:35:08;16.00;99.90
59857;DHT22;45733;52.668;6.860;2023-07-13T01:37:35;16.00;99.90
59857;DHT22;45733;52.668;6.860;2023-07-13T01:40:03;16.10;99.90
59857;DHT22;45733;52.668;6.860;2023-07-13T01:42:38;16.10;99.90
59857;DHT22;45733;52.668;6.860;2023-07-13T01:45:12;16.10;99.90
59857;DHT22;45733;52.668;6.860;2023-07-13T01:47:46;16.20;99.90
59857;DHT22;45733;52.668;6.860;2023-07-13T01:50:12;16.10;99.90
59857;DHT22;45733;52.668;6.860;2023-07-13T01:52:39;16.10;99.90
59857;DHT22;45733;52.668;6.860;2023-07-13T01:55:05;16.10;99.90
59857;DHT22;45733;52.668;6.860;2023-07-13T01:57:31;16.10;99.90
59857;DHT22;45733;52.668;6.860;2023-07-13T01:59:57;16.10;99.90
59857;DHT22;45733;52.668;6.860;2023-07-13T02:02:23;16.10;99.90
59857;DHT22;45733;52.668;6.860;2023-07-13T02:04:49;16.10;99.90
59857;DHT22;45733;52.668;6.860;2023-07-13T02:07:17;16.20;99.90
59857;DHT22;45733;52.668;6.860;2023-07-13T02:09:43;16.10;99.90
59857;DHT22;45733;52.668;6.860;2023-07-13T02:12:12;16.10;99.90
59857;DHT22;45733;52.668;6.860;2023-07-13T02:14:38;16.10;99.90
59857;DHT22;45733;52.668;6.860;2023-07-13T02:17:09;16.10;99.90
59857;DHT22;45733;52.668;6.860;2023-07-13T02:19:34;16.10;99.90
59857;DHT22;45733;52.668;6.860;2023-07-13T02:22:00;16.00;99.90
59857;DHT22;45733;52.668;6.860;2023-07-13T02:24:26;16.10;99.90
59857;DHT22;45733;52.668;6.860;2023-07-13T02:26:52;16.00;99.90
59857;DHT22;45733;52.668;6.860;2023-07-13T02:29:18;16.00;99.90
59857;DHT22;45733;52.668;6.860;2023-07-13T02:31:50;16.00;99.90
59857;DHT22;45733;52.668;6.860;2023-07-13T02:34:15;16.00;99.90
59857;DHT22;45733;52.668;6.860;2023-07-13T02:36:41;16.00;99.90
59857;DHT22;45733;52.668;6.860;2023-07-13T02:39:07;16.00;99.90
59857;DHT22;45733;52.668;6.860;2023-07-13T02:41:36;16.00;99.90
59857;DHT22;45733;52.668;6.860;2023-07-13T02:44:02;16.00;99.90
59857;DHT22;45733;52.668;6.860;2023-07-13T02:46:30;16.00;99.90
59857;DHT22;45733;52.668;6.860;2023-07-13T02:48:56;16.10;99.90
59857;DHT22;45733;52.668;6.860;2023-07-13T02:51:25;16.10;99.90
59857;DHT22;45733;52.668;6.860;2023-07-13T02:53:51;16.00;99.90
59857;DHT22;45733;52.668;6.860;2023-07-13T02:56:21;16.00;99.90
59857;DHT22;45733;52.668;6.860;2023-07-13T02:58:47;16.00;99.90
59857;DHT22;45733;52.668;6.860;2023-07-13T03:01:13;16.00;99.90
59857;DHT22;45733;52.668;6.860;2023-07-13T03:03:47;16.00;99.90
59857;DHT22;45733;52.668;6.860;2023-07-13T03:06:14;16.00;99.90
59857;DHT22;45733;52.668;6.860;2023-07-13T03:08:40;16.00;99.90
59857;DHT22;45733;52.668;6.860;2023-07-13T03:11:09;16.00;99.90
59857;DHT22;45733;52.668;6.860;2023-07-13T03:13:37;16.00;99.90
59857;DHT22;45733;52.668;6.860;2023-07-13T03:16:03;16.00;99.90
59857;DHT22;45733;52.668;6.860;2023-07-13T03:18:29;15.90;99.90
59857;DHT22;45733;52.668;6.860;2023-07-13T03:20:54;16.00;99.90
59857;DHT22;45733;52.668;6.860;2023-07-13T03:23:21;16.00;99.90
59857;DHT22;45733;52.668;6.860;2023-07-13T03:26:00;15.90;99.90
59857;DHT22;45733;52.668;6.860;2023-07-13T03:28:26;15.90;99.90
59857;DHT22;45733;52.668;6.860;2023-07-13T03:31:03;15.90;99.90
59857;DHT22;45733;52.668;6.860;2023-07-13T03:33:30;15.90;99.90
59857;DHT22;45733;52.668;6.860;2023-07-13T03:35:56;15.90;99.90
59857;DHT22;45733;52.668;6.860;2023-07-13T03:38:22;15.80;99.90
59857;DHT22;45733;52.668;6.860;2023-07-13T03:40:47;15.80;99.90
59857;DHT22;45733;52.668;6.860;2023-07-13T03:43:22;15.80;99.90
59857;DHT22;45733;52.668;6.860;2023-07-13T03:45:50;15.80;99.90
59857;DHT22;45733;52.668;6.860;2023-07-13T03:48:16;15.70;99.90
59857;DHT22;45733;52.668;6.860;2023-07-13T03:50:49;15.70;99.90
59857;DHT22;45733;52.668;6.860;2023-07-13T03:53:15;15.70;99.90
59857;DHT22;45733;52.668;6.860;2023-07-13T03:55:41;15.70;99.90
59857;DHT22;45733;52.668;6.860;2023-07-13T03:58:51;15.70;99.90
59857;DHT22;45733;52.668;6.860;2023-07-13T04:01:22;15.70;99.90
59857;DHT22;45733;52.668;6.860;2023-07-13T04:04:09;15.70;99.90
59857;DHT22;45733;52.668;6.860;2023-07-13T04:07:01;15.70;99.90
59857;DHT22;45733;52.668;6.860;2023-07-13T04:09:30;15.70;99.90
59857;DHT22;45733;52.668;6.860;2023-07-13T04:11:56;15.70;99.90
59857;DHT22;45733;52.668;6.860;2023-07-13T04:14:21;15.70;99.90
59857;DHT22;45733;52.668;6.860;2023-07-13T04:16:50;15.70;99.90
59857;DHT22;45733;52.668;6.860;2023-07-13T04:19:22;15.70;99.90
59857;DHT22;45733;52.668;6.860;2023-07-13T04:21:57;15.70;99.90
59857;DHT22;45733;52.668;6.860;2023-07-13T04:24:35;15.60;99.90
59857;DHT22;45733;52.668;6.860;2023-07-13T04:27:01;15.50;99.90
59857;DHT22;45733;52.668;6.860;2023-07-13T04:29:40;15.60;99.90
59857;DHT22;45733;52.668;6.860;2023-07-13T04:32:09;15.60;99.90
59857;DHT22;45733;52.668;6.860;2023-07-13T04:34:41;15.60;99.90
59857;DHT22;45733;52.668;6.860;2023-07-13T04:37:06;15.60;99.90
59857;DHT22;45733;52.668;6.860;2023-07-13T04:39:38;15.50;99.90
59857;DHT22;45733;52.668;6.860;2023-07-13T04:42:04;15.60;99.90
59857;DHT22;45733;52.668;6.860;2023-07-13T04:44:49;15.70;99.90
59857;DHT22;45733;52.668;6.860;2023-07-13T04:47:20;15.70;99.90
59857;DHT22;45733;52.668;6.860;2023-07-13T04:49:46;15.80;99.90
59857;DHT22;45733;52.668;6.860;2023-07-13T04:52:21;15.90;99.90
59857;DHT22;45733;52.668;6.860;2023-07-13T04:54:55;16.20;99.90
59857;DHT22;45733;52.668;6.860;2023-07-13T04:57:21;16.20;99.90
59857;DHT22;45733;52.668;6.860;2023-07-13T04:59:46;17.70;99.90
59857;DHT22;45733;52.668;6.860;2023-07-13T05:02:12;17.30;99.90
59857;DHT22;45733;52.668;6.860;2023-07-13T05:04:40;18.60;99.90
59857;DHT22;45733;52.668;6.860;2023-07-13T05:07:10;18.80;99.90
59857;DHT22;45733;52.668;6.860;2023-07-13T05:09:41;18.60;99.90
59857;DHT22;45733;52.668;6.860;2023-07-13T05:12:11;18.30;99.90
59857;DHT22;45733;52.668;6.860;2023-07-13T05:14:37;18.40;99.90
59857;DHT22;45733;52.668;6.860;2023-07-13T05:17:08;20.00;99.90
59857;DHT22;45733;52.668;6.860;2023-07-13T05:19:37;19.10;99.90
59857;DHT22;45733;52.668;6.860;2023-07-13T05:22:03;20.60;99.90
59857;DHT22;45733;52.668;6.860;2023-07-13T05:24:38;21.00;99.90
59857;DHT22;45733;52.668;6.860;2023-07-13T05:27:07;21.40;99.90
59857;DHT22;45733;52.668;6.860;2023-07-13T05:29:39;21.80;99.90
59857;DHT22;45733;52.668;6.860;2023-07-13T05:32:11;21.80;99.90
59857;DHT22;45733;52.668;6.860;2023-07-13T05:34:39;22.40;99.90
59857;DHT22;45733;52.668;6.860;2023-07-13T05:37:05;22.00;99.90
59857;DHT22;45733;52.668;6.860;2023-07-13T05:39:36;22.40;99.90
59857;DHT22;45733;52.668;6.860;2023-07-13T05:42:02;22.50;99.90
59857;DHT22;45733;52.668;6.860;2023-07-13T05:44:30;22.50;99.90
59857;DHT22;45733;52.668;6.860;2023-07-13T05:46:58;22.80;99.90
59857;DHT22;45733;52.668;6.860;2023-07-13T05:49:30;22.90;99.90
59857;DHT22;45733;52.668;6.860;2023-07-13T05:51:59;23.30;99.90
59857;DHT22;45733;52.668;6.860;2023-07-13T05:54:40;21.50;99.90
59857;DHT22;45733;52.668;6.860;2023-07-13T05:57:09;20.90;99.90
59857;DHT22;45733;52.668;6.860;2023-07-13T05:59:35;20.50;99.90
59857;DHT22;45733;52.668;6.860;2023-07-13T06:02:01;20.10;99.90
59857;DHT22;45733;52.668;6.860;2023-07-13T06:04:27;20.10;99.90
59857;DHT22;45733;52.668;6.860;2023-07-13T06:07:06;20.20;99.90
59857;DHT22;45733;52.668;6.860;2023-07-13T06:09:35;20.00;99.90
59857;DHT22;45733;52.668;6.860;2023-07-13T06:12:00;20.10;99.90
59857;DHT22;45733;52.668;6.860;2023-07-13T06:14:34;20.30;99.90
59857;DHT22;45733;52.668;6.860;2023-07-13T06:17:19;20.30;99.90
59857;DHT22;45733;52.668;6.860;2023-07-13T06:19:45;20.40;99.90
59857;DHT22;45733;52.668;6.860;2023-07-13T06:22:14;20.30;99.90
59857;DHT22;45733;52.668;6.860;2023-07-13T06:24:40;20.10;99.90
59857;DHT22;45733;52.668;6.860;2023-07-13T06:27:05;20.40;99.90
59857;DHT22;45733;52.668;6.860;2023-07-13T06:29:31;20.40;99.90
59857;DHT22;45733;52.668;6.860;2023-07-13T06:31:57;20.50;99.90
59857;DHT22;45733;52.668;6.860;2023-07-13T06:34:32;20.60;99.90
59857;DHT22;45733;52.668;6.860;2023-07-13T06:36:57;20.50;99.90
59857;DHT22;45733;52.668;6.860;2023-07-13T06:39:23;20.80;99.90
59857;DHT22;45733;52.668;6.860;2023-07-13T06:41:49;20.80;99.90
59857;DHT22;45733;52.668;6.860;2023-07-13T06:44:14;20.60;99.90
59857;DHT22;45733;52.668;6.860;2023-07-13T06:46:40;21.00;99.90
59857;DHT22;45733;52.668;6.860;2023-07-13T06:49:07;20.90;99.90
59857;DHT22;45733;52.668;6.860;2023-07-13T06:54:31;20.80;99.90
59857;DHT22;45733;52.668;6.860;2023-07-13T06:57:00;21.00;99.90
59857;DHT22;45733;52.668;6.860;2023-07-13T06:59:44;20.90;99.90
59857;DHT22;45733;52.668;6.860;2023-07-13T07:02:13;20.60;99.90
59857;DHT22;45733;52.668;6.860;2023-07-13T07:04:39;20.30;99.90
59857;DHT22;45733;52.668;6.860;2023-07-13T07:07:05;20.20;99.90
59857;DHT22;45733;52.668;6.860;2023-07-13T07:09:30;20.30;99.90
59857;DHT22;45733;52.668;6.860;2023-07-13T07:11:57;20.30;99.90
59857;DHT22;45733;52.668;6.860;2023-07-13T07:14:23;20.50;99.90
59857;DHT22;45733;52.668;6.860;2023-07-13T07:16:54;21.20;99.90
59857;DHT22;45733;52.668;6.860;2023-07-13T07:19:26;21.20;99.90
59857;DHT22;45733;52.668;6.860;2023-07-13T07:22:00;21.00;99.90
59857;DHT22;45733;52.668;6.860;2023-07-13T07:24:26;21.30;99.90
59857;DHT22;45733;52.668;6.860;2023-07-13T07:26:52;21.60;99.90
59857;DHT22;45733;52.668;6.860;2023-07-13T07:29:24;21.50;99.90
59857;DHT22;45733;52.668;6.860;2023-07-13T07:31:51;21.10;99.90
59857;DHT22;45733;52.668;6.860;2023-07-13T07:34:17;21.00;99.90
59857;DHT22;45733;52.668;6.860;2023-07-13T07:36:43;20.70;99.90
59857;DHT22;45733;52.668;6.860;2023-07-13T07:39:09;20.60;99.90
59857;DHT22;45733;52.668;6.860;2023-07-13T07:41:38;20.60;99.90
59857;DHT22;45733;52.668;6.860;2023-07-13T07:44:04;20.50;99.90
59857;DHT22;45733;52.668;6.860;2023-07-13T07:46:30;20.50;99.90
59857;DHT22;45733;52.668;6.860;2023-07-13T07:48:59;20.30;99.90
59857;DHT22;45733;52.668;6.860;2023-07-13T07:51:30;20.20;99.90
59857;DHT22;45733;52.668;6.860;2023-07-13T07:54:05;20.20;99.90
59857;DHT22;45733;52.668;6.860;2023-07-13T07:56:37;20.20;99.90
59857;DHT22;45733;52.668;6.860;2023-07-13T07:59:03;20.20;99.90
59857;DHT22;45733;52.668;6.860;2023-07-13T08:01:28;20.30;99.90
59857;DHT22;45733;52.668;6.860;2023-07-13T08:03:54;20.40;99.90
59857;DHT22;45733;52.668;6.860;2023-07-13T08:06:20;20.60;99.90
59857;DHT22;45733;52.668;6.860;2023-07-13T08:11:25;20.90;99.90
59857;DHT22;45733;52.668;6.860;2023-07-13T08:13:51;20.80;99.90
59857;DHT22;45733;52.668;6.860;2023-07-13T08:16:17;20.80;99.90
59857;DHT22;45733;52.668;6.860;2023-07-13T08:18:43;20.90;99.90
59857;DHT22;45733;52.668;6.860;2023-07-13T08:21:11;20.90;99.90
59857;DHT22;45733;52.668;6.860;2023-07-13T08:23:37;20.90;99.90
59857;DHT22;45733;52.668;6.860;2023-07-13T08:26:08;20.80;99.90
59857;DHT22;45733;52.668;6.860;2023-07-13T08:28:43;20.80;99.90
59857;DHT22;45733;52.668;6.860;2023-07-13T08:31:09;21.20;99.90
59857;DHT22;45733;52.668;6.860;2023-07-13T08:33:36;21.20;99.90
59857;DHT22;45733;52.668;6.860;2023-07-13T08:36:05;21.30;99.90
59857;DHT22;45733;52.668;6.860;2023-07-13T08:38:31;22.00;99.90
59857;DHT22;45733;52.668;6.860;2023-07-13T08:40:57;21.70;99.90
59857;DHT22;45733;52.668;6.860;2023-07-13T08:43:30;21.50;99.90
59857;DHT22;45733;52.668;6.860;2023-07-13T08:46:26;21.40;99.90
59857;DHT22;45733;52.668;6.860;2023-07-13T08:49:12;21.20;99.90
59857;DHT22;45733;52.668;6.860;2023-07-13T08:56:53;22.20;99.90
59857;DHT22;45733;52.668;6.860;2023-07-13T08:59:23;22.20;99.90
59857;DHT22;45733;52.668;6.860;2023-07-13T09:13:10;22.20;99.90
59857;DHT22;45733;52.668;6.860;2023-07-13T09:16:03;22.20;99.90
59857;DHT22;45733;52.668;6.860;2023-07-13T09:18:53;22.90;99.90
59857;DHT22;45733;52.668;6.860;2023-07-13T09:21:30;23.00;99.90
59857;DHT22;45733;52.668;6.860;2023-07-13T09:26:43;22.40;99.90
59857;DHT22;45733;52.668;6.860;2023-07-13T09:29:29;22.30;99.90
59857;DHT22;45733;52.668;6.860;2023-07-13T09:31:57;21.60;99.90
59857;DHT22;45733;52.668;6.860;2023-07-13T09:34:26;21.20;99.90
59857;DHT22;45733;52.668;6.860;2023-07-13T09:36:51;21.00;99.90
59857;DHT22;45733;52.668;6.860;2023-07-13T09:42:01;18.50;99.90
59857;DHT22;45733;52.668;6.860;2023-07-13T09:44:38;17.50;99.90
59857;DHT22;45733;52.668;6.860;2023-07-13T09:47:19;16.90;99.90
59857;DHT22;45733;52.668;6.860;2023-07-13T09:49:46;16.80;99.90
59857;DHT22;45733;52.668;6.860;2023-07-13T09:52:15;16.60;99.90
59857;DHT22;45733;52.668;6.860;2023-07-13T09:54:45;16.60;99.90
59857;DHT22;45733;52.668;6.860;2023-07-13T09:57:24;16.70;99.90
59857;DHT22;45733;52.668;6.860;2023-07-13T09:59:53;16.70;99.90
59857;DHT22;45733;52.668;6.860;2023-07-13T10:02:33;16.80;99.90
59857;DHT22;45733;52.668;6.860;2023-07-13T10:07:26;17.30;99.90
59857;DHT22;45733;52.668;6.860;2023-07-13T10:09:58;17.70;99.90
59857;DHT22;45733;52.668;6.860;2023-07-13T10:12:27;17.90;99.90
59857;DHT22;45733;52.668;6.860;2023-07-13T10:14:58;18.20;99.90
59857;DHT22;45733;52.668;6.860;2023-07-13T10:17:29;18.30;99.90
59857;DHT22;45733;52.668;6.860;2023-07-13T10:20:02;18.40;99.90
59857;DHT22;45733;52.668;6.860;2023-07-13T10:25:24;18.50;99.90
59857;DHT22;45733;52.668;6.860;2023-07-13T10:28:30;19.00;99.90
59857;DHT22;45733;52.668;6.860;2023-07-13T10:31:44;19.40;99.90
59857;DHT22;45733;52.668;6.860;2023-07-13T10:34:13;20.30;99.90
59857;DHT22;45733;52.668;6.860;2023-07-13T10:36:44;20.50;99.90
59857;DHT22;45733;52.668;6.860;2023-07-13T10:39:20;21.00;99.90
59857;DHT22;45733;52.668;6.860;2023-07-13T10:42:01;21.40;99.90
59857;DHT22;45733;52.668;6.860;2023-07-13T10:44:29;21.30;99.90
59857;DHT22;45733;52.668;6.860;2023-07-13T10:47:01;21.50;99.90
59857;DHT22;45733;52.668;6.860;2023-07-13T10:49:32;21.50;99.90
59857;DHT22;45733;52.668;6.860;2023-07-13T10:51:59;21.10;99.90
59857;DHT22;45733;52.668;6.860;2023-07-13T10:54:31;20.70;99.90
59857;DHT22;45733;52.668;6.860;2023-07-13T10:57:19;20.90;99.90
59857;DHT22;45733;52.668;6.860;2023-07-13T11:00:32;20.80;99.90
59857;DHT22;45733;52.668;6.860;2023-07-13T11:02:33;20.70;99.90
59857;DHT22;45733;52.668;6.860;2023-07-13T11:05:21;20.60;99.90
59857;DHT22;45733;52.668;6.860;2023-07-13T11:08:16;20.50;99.90
59857;DHT22;45733;52.668;6.860;2023-07-13T11:10:54;20.20;99.90
59857;DHT22;45733;52.668;6.860;2023-07-13T11:13:38;20.10;99.90
59857;DHT22;45733;52.668;6.860;2023-07-13T11:18:52;19.80;99.90
59857;DHT22;45733;52.668;6.860;2023-07-13T11:21:27;19.60;99.90
59857;DHT22;45733;52.668;6.860;2023-07-13T11:24:16;19.40;99.90
59857;DHT22;45733;52.668;6.860;2023-07-13T11:26:50;19.20;99.90
59857;DHT22;45733;52.668;6.860;2023-07-13T11:31:42;19.00;99.90
59857;DHT22;45733;52.668;6.860;2023-07-13T11:34:37;18.90;99.90
59857;DHT22;45733;52.668;6.860;2023-07-13T11:37:03;18.80;99.90
59857;DHT22;45733;52.668;6.860;2023-07-13T11:39:35;18.70;99.90
59857;DHT22;45733;52.668;6.860;2023-07-13T11:42:08;18.70;99.90
59857;DHT22;45733;52.668;6.860;2023-07-13T11:44:52;18.70;99.90
59857;DHT22;45733;52.668;6.860;2023-07-13T11:47:21;18.90;99.90
59857;DHT22;45733;52.668;6.860;2023-07-13T11:49:53;19.00;99.90
59857;DHT22;45733;52.668;6.860;2023-07-13T11:52:31;19.30;99.90
59857;DHT22;45733;52.668;6.860;2023-07-13T11:55:00;19.90;99.90
59857;DHT22;45733;52.668;6.860;2023-07-13T11:57:32;20.40;99.90
59857;DHT22;45733;52.668;6.860;2023-07-13T12:00:04;20.70;99.90
59857;DHT22;45733;52.668;6.860;2023-07-13T12:02:34;21.30;99.90
59857;DHT22;45733;52.668;6.860;2023-07-13T12:05:02;21.20;99.90
59857;DHT22;45733;52.668;6.860;2023-07-13T12:07:31;21.10;99.90
59857;DHT22;45733;52.668;6.860;2023-07-13T12:13:08;20.80;99.90
59857;DHT22;45733;52.668;6.860;2023-07-13T12:15:39;21.50;99.90
59857;DHT22;45733;52.668;6.860;2023-07-13T12:18:15;22.00;99.90
59857;DHT22;45733;52.668;6.860;2023-07-13T12:20:41;22.40;99.90
59857;DHT22;45733;52.668;6.860;2023-07-13T12:25:55;22.30;99.90
59857;DHT22;45733;52.668;6.860;2023-07-13T12:30:49;22.80;99.90
59857;DHT22;45733;52.668;6.860;2023-07-13T12:33:17;22.90;99.90
59857;DHT22;45733;52.668;6.860;2023-07-13T12:35:47;22.60;99.90
59857;DHT22;45733;52.668;6.860;2023-07-13T12:38:16;22.60;99.90
59857;DHT22;45733;52.668;6.860;2023-07-13T12:40:41;22.30;99.90
59857;DHT22;45733;52.668;6.860;2023-07-13T12:43:23;22.10;99.90
59857;DHT22;45733;52.668;6.860;2023-07-13T12:46:02;22.00;99.90
59857;DHT22;45733;52.668;6.860;2023-07-13T12:48:38;22.00;99.90
59857;DHT22;45733;52.668;6.860;2023-07-13T12:51:10;22.70;99.90
59857;DHT22;45733;52.668;6.860;2023-07-13T12:53:41;23.00;99.90
59857;DHT22;45733;52.668;6.860;2023-07-13T12:56:24;22.80;99.90
59857;DHT22;45733;52.668;6.860;2023-07-13T12:58:56;23.40;99.90
59857;DHT22;45733;52.668;6.860;2023-07-13T13:01:23;23.60;99.90
59857;DHT22;45733;52.668;6.860;2023-07-13T13:04:09;23.80;99.90
59857;DHT22;45733;52.668;6.860;2023-07-13T13:06:36;23.60;99.90
59857;DHT22;45733;52.668;6.860;2023-07-13T13:09:03;23.90;99.90
59857;DHT22;45733;52.668;6.860;2023-07-13T13:11:32;23.90;99.90
59857;DHT22;45733;52.668;6.860;2023-07-13T13:13:58;24.10;99.90
59857;DHT22;45733;52.668;6.860;2023-07-13T13:16:35;24.40;99.90
59857;DHT22;45733;52.668;6.860;2023-07-13T13:19:33;24.50;99.90
59857;DHT22;45733;52.668;6.860;2023-07-13T13:22:02;24.30;99.90
59857;DHT22;45733;52.668;6.860;2023-07-13T13:24:31;23.70;99.90
59857;DHT22;45733;52.668;6.860;2023-07-13T13:27:18;23.60;99.90
59857;DHT22;45733;52.668;6.860;2023-07-13T13:29:48;24.10;99.90
59857;DHT22;45733;52.668;6.860;2023-07-13T13:32:15;24.20;99.90
59857;DHT22;45733;52.668;6.860;2023-07-13T13:34:47;24.10;99.90
59857;DHT22;45733;52.668;6.860;2023-07-13T13:37:23;24.40;99.90
59857;DHT22;45733;52.668;6.860;2023-07-13T13:39:56;24.40;99.90
59857;DHT22;45733;52.668;6.860;2023-07-13T13:42:25;24.50;99.90
59857;DHT22;45733;52.668;6.860;2023-07-13T13:44:52;24.40;99.90
59857;DHT22;45733;52.668;6.860;2023-07-13T13:47:44;24.50;99.90
59857;DHT22;45733;52.668;6.860;2023-07-13T13:50:19;24.40;99.90
59857;DHT22;45733;52.668;6.860;2023-07-13T13:53:01;24.50;99.90
59857;DHT22;45733;52.668;6.860;2023-07-13T13:55:31;24.60;99.90
59857;DHT22;45733;52.668;6.860;2023-07-13T13:57:59;24.80;99.90
59857;DHT22;45733;52.668;6.860;2023-07-13T14:00:28;25.10;99.90
59857;DHT22;45733;52.668;6.860;2023-07-13T14:03:17;25.00;99.90
59857;DHT22;45733;52.668;6.860;2023-07-13T14:05:47;24.60;99.90
59857;DHT22;45733;52.668;6.860;2023-07-13T14:08:21;24.20;99.90
59857;DHT22;45733;52.668;6.860;2023-07-13T14:10:49;24.00;99.90
59857;DHT22;45733;52.668;6.860;2023-07-13T14:13:28;24.30;99.90
59857;DHT22;45733;52.668;6.860;2023-07-13T14:15:54;24.40;99.90
59857;DHT22;45733;52.668;6.860;2023-07-13T14:18:23;24.00;99.90
59857;DHT22;45733;52.668;6.860;2023-07-13T14:21:10;23.70;99.90
59857;DHT22;45733;52.668;6.860;2023-07-13T14:23:36;24.00;99.90
59857;DHT22;45733;52.668;6.860;2023-07-13T14:26:08;24.20;99.90
59857;DHT22;45733;52.668;6.860;2023-07-13T14:28:42;24.60;99.90
59857;DHT22;45733;52.668;6.860;2023-07-13T14:31:09;24.70;99.90
59857;DHT22;45733;52.668;6.860;2023-07-13T14:33:34;23.70;99.90
59857;DHT22;45733;52.668;6.860;2023-07-13T14:38:53;24.10;99.90
59857;DHT22;45733;52.668;6.860;2023-07-13T14:41:22;24.50;99.90
59857;DHT22;45733;52.668;6.860;2023-07-13T14:44:00;24.70;99.90
59857;DHT22;45733;52.668;6.860;2023-07-13T14:46:33;24.90;99.90
59857;DHT22;45733;52.668;6.860;2023-07-13T14:49:25;24.90;99.90
59857;DHT22;45733;52.668;6.860;2023-07-13T14:51:53;25.00;99.90
59857;DHT22;45733;52.668;6.860;2023-07-13T14:54:19;24.50;99.90
59857;DHT22;45733;52.668;6.860;2023-07-13T14:59:52;23.80;99.90
59857;DHT22;45733;52.668;6.860;2023-07-13T15:02:36;23.80;99.90
59857;DHT22;45733;52.668;6.860;2023-07-13T15:05:13;24.10;99.90
59857;DHT22;45733;52.668;6.860;2023-07-13T15:08:09;24.30;99.90
59857;DHT22;45733;52.668;6.860;2023-07-13T15:10:42;24.30;99.90
59857;DHT22;45733;52.668;6.860;2023-07-13T15:13:23;23.70;99.90
59857;DHT22;45733;52.668;6.860;2023-07-13T15:16:43;23.50;99.90
59857;DHT22;45733;52.668;6.860;2023-07-13T15:22:25;23.30;99.90
59857;DHT22;45733;52.668;6.860;2023-07-13T15:24:51;23.10;99.90
59857;DHT22;45733;52.668;6.860;2023-07-13T15:27:17;22.80;99.90
59857;DHT22;45733;52.668;6.860;2023-07-13T15:29:42;23.20;99.90
59857;DHT22;45733;52.668;6.860;2023-07-13T15:32:14;23.40;99.90
59857;DHT22;45733;52.668;6.860;2023-07-13T15:34:40;23.80;99.90
59857;DHT22;45733;52.668;6.860;2023-07-13T15:37:16;23.90;99.90
59857;DHT22;45733;52.668;6.860;2023-07-13T15:39:43;24.00;99.90
59857;DHT22;45733;52.668;6.860;2023-07-13T15:42:20;23.90;99.90
59857;DHT22;45733;52.668;6.860;2023-07-13T15:44:45;24.10;99.90
59857;DHT22;45733;52.668;6.860;2023-07-13T15:47:13;24.10;99.90
59857;DHT22;45733;52.668;6.860;2023-07-13T15:49:46;24.00;99.90
59857;DHT22;45733;52.668;6.860;2023-07-13T15:52:25;23.30;99.90
59857;DHT22;45733;52.668;6.860;2023-07-13T15:54:51;23.40;99.90
59857;DHT22;45733;52.668;6.860;2023-07-13T15:57:52;23.60;99.90
59857;DHT22;45733;52.668;6.860;2023-07-13T16:00:23;23.60;99.90
59857;DHT22;45733;52.668;6.860;2023-07-13T16:02:58;23.10;99.90
59857;DHT22;45733;52.668;6.860;2023-07-13T16:05:29;22.90;99.90
59857;DHT22;45733;52.668;6.860;2023-07-13T16:07:58;23.30;99.90
59857;DHT22;45733;52.668;6.860;2023-07-13T16:10:36;23.60;99.90
59857;DHT22;45733;52.668;6.860;2023-07-13T16:13:22;23.70;99.90
59857;DHT22;45733;52.668;6.860;2023-07-13T16:15:50;23.70;99.90
59857;DHT22;45733;52.668;6.860;2023-07-13T16:18:38;23.60;99.90
59857;DHT22;45733;52.668;6.860;2023-07-13T16:21:14;22.90;99.90
59857;DHT22;45733;52.668;6.860;2023-07-13T16:23:51;22.60;99.90
59857;DHT22;45733;52.668;6.860;2023-07-13T16:28:54;22.60;99.90
59857;DHT22;45733;52.668;6.860;2023-07-13T16:32:13;22.70;99.90
59857;DHT22;45733;52.668;6.860;2023-07-13T16:35:02;22.40;99.90
59857;DHT22;45733;52.668;6.860;2023-07-13T16:37:30;22.40;99.90
59857;DHT22;45733;52.668;6.860;2023-07-13T16:40:01;22.20;99.90
59857;DHT22;45733;52.668;6.860;2023-07-13T16:42:27;22.40;99.90
59857;DHT22;45733;52.668;6.860;2023-07-13T16:44:53;22.70;99.90
59857;DHT22;45733;52.668;6.860;2023-07-13T16:47:21;22.90;99.90
59857;DHT22;45733;52.668;6.860;2023-07-13T16:49:49;22.90;99.90
59857;DHT22;45733;52.668;6.860;2023-07-13T16:52:42;23.00;99.90
59857;DHT22;45733;52.668;6.860;2023-07-13T16:55:21;22.90;99.90
59857;DHT22;45733;52.668;6.860;2023-07-13T16:57:58;22.70;99.90